createdAt,value
2022-12-29T00:00:29.364Z,6.48
2022-12-29T00:01:31.486Z,6.47
2022-12-29T00:02:33.014Z,6.40
2022-12-29T00:03:34.564Z,6.37
2022-12-29T00:04:36.119Z,6.43
2022-12-29T00:05:37.535Z,6.39
2022-12-29T00:06:38.927Z,6.45
2022-12-29T00:07:40.360Z,6.39
2022-12-29T00:08:41.932Z,6.29
2022-12-29T00:09:43.509Z,6.49
2022-12-29T00:10:50.719Z,6.54
2022-12-29T00:11:52.248Z,6.50
2022-12-29T00:13:12.222Z,6.54
2022-12-29T00:14:32.645Z,6.50
2022-12-29T00:15:39.932Z,6.65
2022-12-29T00:16:46.192Z,6.61
2022-12-29T00:17:47.588Z,6.53
2022-12-29T00:18:50.457Z,6.68
2022-12-29T00:20:10.186Z,6.62
2022-12-29T00:21:34.653Z,6.55
2022-12-29T00:22:54.582Z,6.59
2022-12-29T00:24:28.376Z,6.61
2022-12-29T00:25:48.618Z,6.82
2022-12-29T00:27:30.832Z,6.82
2022-12-29T00:28:51.321Z,6.78
2022-12-29T00:30:11.591Z,6.73
2022-12-29T00:31:34.103Z,6.77
2022-12-29T00:32:54.173Z,6.79
2022-12-29T00:34:13.884Z,6.74
2022-12-29T00:35:26.236Z,6.67
2022-12-29T00:36:34.205Z,6.65
2022-12-29T00:38:01.467Z,6.72
2022-12-29T00:39:28.940Z,6.72
2022-12-29T00:40:48.761Z,6.71
2022-12-29T00:42:08.617Z,6.72
2022-12-29T00:43:28.516Z,6.74
2022-12-29T00:44:29.945Z,6.75
2022-12-29T00:45:31.348Z,6.72
2022-12-29T00:46:37.171Z,6.70
2022-12-29T00:47:38.604Z,6.66
2022-12-29T00:48:58.654Z,6.64
2022-12-29T00:49:59.939Z,6.74
2022-12-29T00:51:01.346Z,6.72
2022-12-29T00:52:11.320Z,6.72
2022-12-29T00:53:12.731Z,6.68
2022-12-29T00:54:18.435Z,6.68
2022-12-29T00:55:19.848Z,6.68
2022-12-29T00:56:21.426Z,6.79
2022-12-29T00:57:22.830Z,6.80
2022-12-29T00:58:24.337Z,6.82
2022-12-29T00:59:26.197Z,6.88
2022-12-29T01:00:27.666Z,6.97
2022-12-29T01:01:29.481Z,6.89
2022-12-29T01:02:31.028Z,6.88
2022-12-29T01:03:33.333Z,6.86
2022-12-29T01:04:36.503Z,6.92
2022-12-29T01:05:38.231Z,6.82
2022-12-29T01:06:41.117Z,6.79
2022-12-29T01:07:42.528Z,6.72
2022-12-29T01:08:43.930Z,6.84
2022-12-29T01:10:03.854Z,6.88
2022-12-29T01:11:10.810Z,6.83
2022-12-29T01:12:13.064Z,6.81
2022-12-29T01:13:15.650Z,6.90
2022-12-29T01:14:19.416Z,6.86
2022-12-29T01:15:21.834Z,6.78
2022-12-29T01:16:23.280Z,6.73
2022-12-29T01:17:24.706Z,6.72
2022-12-29T01:18:27.501Z,6.79
2022-12-29T01:19:28.937Z,6.81
2022-12-29T01:20:30.326Z,6.82
2022-12-29T01:21:32.148Z,6.86
2022-12-29T01:22:33.558Z,6.79
2022-12-29T01:23:35.316Z,6.75
2022-12-29T01:24:36.821Z,6.73
2022-12-29T01:25:38.236Z,6.72
2022-12-29T01:26:39.782Z,6.74
2022-12-29T01:27:41.176Z,6.77
2022-12-29T01:28:43.063Z,6.86
2022-12-29T01:29:44.557Z,6.95
2022-12-29T01:30:45.979Z,6.97
2022-12-29T01:31:47.623Z,6.96
2022-12-29T01:32:49.078Z,6.93
2022-12-29T01:33:50.490Z,6.91
2022-12-29T01:34:51.925Z,6.89
2022-12-29T01:35:55.932Z,6.89
2022-12-29T01:36:57.375Z,6.89
2022-12-29T01:37:58.985Z,6.75
2022-12-29T01:39:00.430Z,6.75
2022-12-29T01:40:01.888Z,6.74
2022-12-29T01:41:04.690Z,6.78
2022-12-29T01:42:17.111Z,6.84
2022-12-29T01:43:19.553Z,6.96
2022-12-29T01:44:56.981Z,6.82
2022-12-29T01:45:58.427Z,6.78
2022-12-29T01:47:02.545Z,6.75
2022-12-29T01:48:06.399Z,6.80
2022-12-29T01:49:25.323Z,6.83
2022-12-29T01:50:33.670Z,6.71
2022-12-29T01:51:49.430Z,6.84
2022-12-29T01:53:29.217Z,6.81
2022-12-29T01:54:37.508Z,6.90
2022-12-29T01:55:43.917Z,6.83
2022-12-29T01:56:46.693Z,6.75
2022-12-29T01:57:52.248Z,6.69
2022-12-29T01:59:07.594Z,6.78
2022-12-29T02:00:14.501Z,6.72
2022-12-29T02:01:19.344Z,6.71
2022-12-29T02:02:21.176Z,6.72
2022-12-29T02:03:27.270Z,6.88
2022-12-29T02:04:32.718Z,6.77
2022-12-29T02:05:37.129Z,6.79
2022-12-29T02:06:46.169Z,6.67
2022-12-29T02:07:48.740Z,6.62
2022-12-29T02:08:53.134Z,6.60
2022-12-29T02:09:56.168Z,6.73
2022-12-29T02:11:00.343Z,6.68
2022-12-29T02:12:04.484Z,6.75
2022-12-29T02:13:06.024Z,6.81
2022-12-29T02:14:13.573Z,6.69
2022-12-29T02:15:15.932Z,6.60
2022-12-29T02:16:32.977Z,6.61
2022-12-29T02:17:42.658Z,6.67
2022-12-29T02:19:07.585Z,6.73
2022-12-29T02:20:43.338Z,6.79
2022-12-29T02:21:45.638Z,6.69
2022-12-29T02:23:12.147Z,6.77
2022-12-29T02:24:31.883Z,6.76
2022-12-29T02:26:15.289Z,6.91
2022-12-29T02:27:34.850Z,6.81
2022-12-29T02:29:08.694Z,6.88
2022-12-29T02:30:31.502Z,7.01
2022-12-29T02:31:47.143Z,6.86
2022-12-29T02:33:30.614Z,6.93
2022-12-29T02:34:59.199Z,6.92
2022-12-29T02:36:22.770Z,6.88
2022-12-29T02:37:29.515Z,6.95
2022-12-29T02:38:41.149Z,6.93
2022-12-29T02:40:00.960Z,6.81
2022-12-29T02:41:30.996Z,6.91
2022-12-29T02:42:50.643Z,6.91
2022-12-29T02:44:02.630Z,6.89
2022-12-29T02:45:22.946Z,6.89
2022-12-29T02:46:36.176Z,6.87
2022-12-29T02:47:46.623Z,6.76
2022-12-29T02:49:11.952Z,6.83
2022-12-29T02:50:20.031Z,6.80
2022-12-29T02:51:58.127Z,6.79
2022-12-29T02:53:01.037Z,6.99
2022-12-29T02:54:21.392Z,6.85
2022-12-29T02:55:25.670Z,6.97
2022-12-29T02:56:27.111Z,7.02
2022-12-29T02:57:31.418Z,6.86
2022-12-29T02:58:32.845Z,7.02
2022-12-29T02:59:34.296Z,7.16
2022-12-29T03:00:42.451Z,7.15
2022-12-29T03:02:11.704Z,7.28
2022-12-29T03:03:51.719Z,7.19
2022-12-29T03:05:11.223Z,7.12
2022-12-29T03:06:32.087Z,7.13
2022-12-29T03:07:39.477Z,7.04
2022-12-29T03:09:18.918Z,7.03
2022-12-29T03:10:29.250Z,7.00
2022-12-29T03:11:59.038Z,6.95
2022-12-29T03:13:58.156Z,7.14
2022-12-29T03:15:27.995Z,7.10
2022-12-29T03:17:11.398Z,7.09
2022-12-29T03:18:26.184Z,7.02
2022-12-29T03:19:35.978Z,6.98
2022-12-29T03:20:53.641Z,7.05
2022-12-29T03:22:18.769Z,7.03
2022-12-29T03:23:21.803Z,7.02
2022-12-29T03:24:38.091Z,7.06
2022-12-29T03:25:48.281Z,7.10
2022-12-29T03:26:53.753Z,7.11
2022-12-29T03:28:02.118Z,7.11
2022-12-29T03:29:06.920Z,7.17
2022-12-29T03:30:09.966Z,7.13
2022-12-29T03:31:13.415Z,7.17
2022-12-29T03:32:17.448Z,7.15
2022-12-29T03:33:24.184Z,7.22
2022-12-29T03:34:27.249Z,7.15
2022-12-29T03:35:33.520Z,7.18
2022-12-29T03:36:45.042Z,7.15
2022-12-29T03:37:56.198Z,7.27
2022-12-29T03:39:09.004Z,7.38
2022-12-29T03:40:10.855Z,7.30
2022-12-29T03:41:17.966Z,7.27
2022-12-29T03:42:28.693Z,7.34
2022-12-29T03:43:30.437Z,7.37
2022-12-29T03:44:34.381Z,7.39
2022-12-29T03:45:35.813Z,7.32
2022-12-29T03:46:37.279Z,7.31
2022-12-29T03:47:38.777Z,7.29
2022-12-29T03:48:40.234Z,7.34
2022-12-29T03:49:41.946Z,7.29
2022-12-29T03:50:43.407Z,7.27
2022-12-29T03:51:51.829Z,7.42
2022-12-29T03:52:53.541Z,7.40
2022-12-29T03:53:55.013Z,7.39
2022-12-29T03:54:56.494Z,7.38
2022-12-29T03:55:57.953Z,7.42
2022-12-29T03:56:59.524Z,7.37
2022-12-29T03:58:00.988Z,7.50
2022-12-29T03:59:02.437Z,7.57
2022-12-29T04:00:06.152Z,7.55
2022-12-29T04:01:07.678Z,7.56
2022-12-29T04:02:09.330Z,7.54
2022-12-29T04:03:10.913Z,7.44
2022-12-29T04:04:12.420Z,7.45
2022-12-29T04:05:13.931Z,7.56
2022-12-29T04:06:15.853Z,7.57
2022-12-29T04:07:17.287Z,7.66
2022-12-29T04:08:19.684Z,7.61
2022-12-29T04:09:21.138Z,7.68
2022-12-29T04:10:22.550Z,7.66
2022-12-29T04:11:28.370Z,7.54
2022-12-29T04:12:32.737Z,7.52
2022-12-29T04:13:37.153Z,7.52
2022-12-29T04:14:38.545Z,7.53
2022-12-29T04:15:40.092Z,7.48
2022-12-29T04:16:41.715Z,7.45
2022-12-29T04:17:43.174Z,7.47
2022-12-29T04:18:44.641Z,7.43
2022-12-29T04:19:46.230Z,7.58
2022-12-29T04:21:03.693Z,7.58
2022-12-29T04:22:05.283Z,7.59
2022-12-29T04:23:07.246Z,7.50
2022-12-29T04:24:08.918Z,7.53
2022-12-29T04:25:10.819Z,7.57
2022-12-29T04:26:12.927Z,7.49
2022-12-29T04:27:14.320Z,7.56
2022-12-29T04:28:17.196Z,7.56
2022-12-29T04:29:20.309Z,7.54
2022-12-29T04:30:21.729Z,7.60
2022-12-29T04:31:23.224Z,7.59
2022-12-29T04:32:27.518Z,7.58
2022-12-29T04:33:29.031Z,7.54
2022-12-29T04:34:30.432Z,7.51
2022-12-29T04:35:31.877Z,7.57
2022-12-29T04:36:33.385Z,7.55
2022-12-29T04:37:34.825Z,7.49
2022-12-29T04:38:36.237Z,7.58
2022-12-29T04:39:37.650Z,7.53
2022-12-29T04:40:44.934Z,7.50
2022-12-29T04:41:47.294Z,7.46
2022-12-29T04:42:51.791Z,7.52
2022-12-29T04:43:53.221Z,7.49
2022-12-29T04:44:54.649Z,7.55
2022-12-29T04:45:56.465Z,7.49
2022-12-29T04:46:57.983Z,7.44
2022-12-29T04:47:59.499Z,7.40
2022-12-29T04:49:05.471Z,7.47
2022-12-29T04:50:07.321Z,7.51
2022-12-29T04:51:08.917Z,7.42
2022-12-29T04:52:10.337Z,7.64
2022-12-29T04:53:11.761Z,7.65
2022-12-29T04:54:13.159Z,7.80
2022-12-29T04:55:14.767Z,7.73
2022-12-29T04:56:16.246Z,7.66
2022-12-29T04:57:17.691Z,7.62
2022-12-29T04:58:22.883Z,7.72
2022-12-29T04:59:24.654Z,7.67
2022-12-29T05:00:29.228Z,7.62
2022-12-29T05:01:30.708Z,7.56
2022-12-29T05:02:32.416Z,7.47
2022-12-29T05:03:33.984Z,7.45
2022-12-29T05:04:35.442Z,7.52
2022-12-29T05:05:37.197Z,7.53
2022-12-29T05:06:38.635Z,7.58
2022-12-29T05:07:40.299Z,7.54
2022-12-29T05:08:41.748Z,7.65
2022-12-29T05:09:45.612Z,7.58
2022-12-29T05:10:47.524Z,7.67
2022-12-29T05:11:48.958Z,7.65
2022-12-29T05:12:50.388Z,7.68
2022-12-29T05:13:51.802Z,7.58
2022-12-29T05:14:53.232Z,7.63
2022-12-29T05:15:54.953Z,7.69
2022-12-29T05:16:59.222Z,7.64
2022-12-29T05:18:00.653Z,7.63
2022-12-29T05:19:05.234Z,7.55
2022-12-29T05:20:07.630Z,7.61
2022-12-29T05:21:09.070Z,7.70
2022-12-29T05:22:10.496Z,7.66
2022-12-29T05:23:12.110Z,7.78
2022-12-29T05:24:13.590Z,7.86
2022-12-29T05:25:15.110Z,7.86
2022-12-29T05:26:16.614Z,7.87
2022-12-29T05:27:18.197Z,7.85
2022-12-29T05:28:19.908Z,7.93
2022-12-29T05:29:24.016Z,7.81
2022-12-29T05:30:25.453Z,7.82
2022-12-29T05:31:30.737Z,7.97
2022-12-29T05:32:32.221Z,7.88
2022-12-29T05:33:34.552Z,7.94
2022-12-29T05:34:35.961Z,7.95
2022-12-29T05:35:37.416Z,7.87
2022-12-29T05:36:39.172Z,7.88
2022-12-29T05:37:40.554Z,8.02
2022-12-29T05:38:42.002Z,8.02
2022-12-29T05:39:43.551Z,8.15
2022-12-29T05:40:46.071Z,8.28
2022-12-29T05:41:47.622Z,8.23
2022-12-29T05:42:49.056Z,8.47
2022-12-29T05:43:50.487Z,8.29
2022-12-29T05:44:54.652Z,8.25
2022-12-29T05:45:57.299Z,8.30
2022-12-29T05:46:58.775Z,8.27
2022-12-29T05:48:00.242Z,8.20
2022-12-29T05:49:01.655Z,8.21
2022-12-29T05:50:03.407Z,8.29
2022-12-29T05:51:07.824Z,8.19
2022-12-29T05:52:09.377Z,8.17
2022-12-29T05:53:10.880Z,8.29
2022-12-29T05:54:13.312Z,8.44
2022-12-29T05:55:14.885Z,8.36
2022-12-29T05:56:16.575Z,8.31
2022-12-29T05:57:18.969Z,8.49
2022-12-29T05:58:21.094Z,8.53
2022-12-29T05:59:22.656Z,8.51
2022-12-29T06:00:24.381Z,8.44
2022-12-29T06:01:25.874Z,8.47
2022-12-29T06:02:27.411Z,8.41
2022-12-29T06:03:28.989Z,8.38
2022-12-29T06:04:30.753Z,8.29
2022-12-29T06:05:32.188Z,8.29
2022-12-29T06:06:33.728Z,8.36
2022-12-29T06:07:35.255Z,8.31
2022-12-29T06:08:36.656Z,8.45
2022-12-29T06:09:38.042Z,8.43
2022-12-29T06:10:39.503Z,8.36
2022-12-29T06:11:40.987Z,8.32
2022-12-29T06:12:42.477Z,8.29
2022-12-29T06:13:43.895Z,8.30
2022-12-29T06:14:45.307Z,8.28
2022-12-29T06:15:50.048Z,8.34
2022-12-29T06:16:54.180Z,8.38
2022-12-29T06:17:58.505Z,8.47
2022-12-29T06:18:59.964Z,8.39
2022-12-29T06:20:02.116Z,8.27
2022-12-29T06:21:05.854Z,8.38
2022-12-29T06:22:08.432Z,8.40
2022-12-29T06:23:09.909Z,8.28
2022-12-29T06:24:12.064Z,8.32
2022-12-29T06:25:13.536Z,8.30
2022-12-29T06:26:15.663Z,8.23
2022-12-29T06:27:21.140Z,8.31
2022-12-29T06:28:22.584Z,8.24
2022-12-29T06:29:24.025Z,8.19
2022-12-29T06:30:25.648Z,8.25
2022-12-29T06:31:27.156Z,8.16
2022-12-29T06:32:28.652Z,8.20
2022-12-29T06:33:30.643Z,8.32
2022-12-29T06:34:31.951Z,8.32
2022-12-29T06:35:33.586Z,8.38
2022-12-29T06:36:35.284Z,8.31
2022-12-29T06:37:36.920Z,8.43
2022-12-29T06:38:38.339Z,8.28
2022-12-29T06:39:39.793Z,8.20
2022-12-29T06:40:43.993Z,8.22
2022-12-29T06:41:45.466Z,8.30
2022-12-29T06:42:46.898Z,8.26
2022-12-29T06:43:51.448Z,8.38
2022-12-29T06:44:53.294Z,8.28
2022-12-29T06:45:57.658Z,8.26
2022-12-29T06:47:02.198Z,8.25
2022-12-29T06:48:03.709Z,8.32
2022-12-29T06:49:05.322Z,8.16
2022-12-29T06:50:07.023Z,8.10
2022-12-29T06:51:10.241Z,8.10
2022-12-29T06:52:13.230Z,8.18
2022-12-29T06:53:15.460Z,8.12
2022-12-29T06:54:16.869Z,8.07
2022-12-29T06:55:18.690Z,8.13
2022-12-29T06:56:20.111Z,8.18
2022-12-29T06:57:22.205Z,8.29
2022-12-29T06:58:23.659Z,8.28
2022-12-29T06:59:28.430Z,8.27
2022-12-29T07:00:29.875Z,8.28
2022-12-29T07:01:31.657Z,8.34
2022-12-29T07:02:33.242Z,8.34
2022-12-29T07:03:34.813Z,8.26
2022-12-29T07:04:36.296Z,8.23
2022-12-29T07:05:37.736Z,8.19
2022-12-29T07:06:39.611Z,8.25
2022-12-29T07:07:41.048Z,8.10
2022-12-29T07:08:42.498Z,8.09
2022-12-29T07:09:43.922Z,8.24
2022-12-29T07:10:46.407Z,8.24
2022-12-29T07:11:47.907Z,8.23
2022-12-29T07:12:49.492Z,8.06
2022-12-29T07:13:51.179Z,8.10
2022-12-29T07:14:52.621Z,8.00
2022-12-29T07:15:54.161Z,7.97
2022-12-29T07:16:58.630Z,7.99
2022-12-29T07:18:00.080Z,8.05
2022-12-29T07:19:02.491Z,8.22
2022-12-29T07:20:06.927Z,8.31
2022-12-29T07:21:08.436Z,8.44
2022-12-29T07:22:10.533Z,8.45
2022-12-29T07:23:11.961Z,8.57
2022-12-29T07:24:13.456Z,8.65
2022-12-29T07:25:14.997Z,8.66
2022-12-29T07:26:18.982Z,8.52
2022-12-29T07:27:20.486Z,8.48
2022-12-29T07:28:21.907Z,8.44
2022-12-29T07:29:28.925Z,8.40
2022-12-29T07:30:30.592Z,8.44
2022-12-29T07:31:32.262Z,8.42
2022-12-29T07:32:35.016Z,8.50
2022-12-29T07:33:36.452Z,8.48
2022-12-29T07:34:37.933Z,8.47
2022-12-29T07:35:39.400Z,8.35
2022-12-29T07:36:40.876Z,8.41
2022-12-29T07:37:42.300Z,8.41
2022-12-29T07:38:44.199Z,8.49
2022-12-29T07:39:45.753Z,8.43
2022-12-29T07:40:49.611Z,8.31
2022-12-29T07:41:51.033Z,8.26
2022-12-29T07:42:52.447Z,8.25
2022-12-29T07:43:53.864Z,8.22
2022-12-29T07:44:55.282Z,8.20
2022-12-29T07:45:56.854Z,8.31
2022-12-29T07:46:58.852Z,8.40
2022-12-29T07:48:00.479Z,8.30
2022-12-29T07:49:01.978Z,8.24
2022-12-29T07:50:03.911Z,8.36
2022-12-29T07:51:05.489Z,8.30
2022-12-29T07:52:06.971Z,8.25
2022-12-29T07:53:08.635Z,8.26
2022-12-29T07:54:13.596Z,8.33
2022-12-29T07:55:18.831Z,8.40
2022-12-29T07:56:20.305Z,8.36
2022-12-29T07:57:26.433Z,8.49
2022-12-29T07:58:31.155Z,8.42
2022-12-29T07:59:32.824Z,8.57
2022-12-29T08:00:38.972Z,8.52
2022-12-29T08:01:46.643Z,8.56
2022-12-29T08:02:48.248Z,8.56
2022-12-29T08:03:55.389Z,8.48
2022-12-29T08:04:58.636Z,8.53
2022-12-29T08:06:00.300Z,8.46
2022-12-29T08:07:01.864Z,8.49
2022-12-29T08:08:03.396Z,8.70
2022-12-29T08:09:14.798Z,8.57
2022-12-29T08:10:18.643Z,8.79
2022-12-29T08:11:19.978Z,8.66
2022-12-29T08:12:21.465Z,8.70
2022-12-29T08:13:22.865Z,8.74
2022-12-29T08:14:24.619Z,8.78
2022-12-29T08:15:32.172Z,8.92
2022-12-29T08:16:34.123Z,8.94
2022-12-29T08:17:35.958Z,8.89
2022-12-29T08:18:37.366Z,8.85
2022-12-29T08:19:39.101Z,8.86
2022-12-29T08:20:40.525Z,8.86
2022-12-29T08:21:42.090Z,8.96
2022-12-29T08:22:43.512Z,8.98
2022-12-29T08:23:44.930Z,8.97
2022-12-29T08:24:46.429Z,8.95
2022-12-29T08:25:48.204Z,9.03
2022-12-29T08:26:49.627Z,8.98
2022-12-29T08:27:53.049Z,8.99
2022-12-29T08:28:56.636Z,8.96
2022-12-29T08:29:58.051Z,8.96
2022-12-29T08:31:01.345Z,8.94
2022-12-29T08:32:03.081Z,8.85
2022-12-29T08:33:04.541Z,8.87
2022-12-29T08:34:06.666Z,8.79
2022-12-29T08:35:08.554Z,8.84
2022-12-29T08:36:10.371Z,8.96
2022-12-29T08:37:11.803Z,8.93
2022-12-29T08:38:13.325Z,8.73
2022-12-29T08:39:14.818Z,8.71
2022-12-29T08:40:16.215Z,8.72
2022-12-29T08:41:17.649Z,8.77
2022-12-29T08:42:19.205Z,8.75
2022-12-29T08:43:20.694Z,8.74
2022-12-29T08:44:22.754Z,8.83
2022-12-29T08:45:24.060Z,8.76
2022-12-29T08:46:25.726Z,8.69
2022-12-29T08:47:28.004Z,8.58
2022-12-29T08:48:29.554Z,8.58
2022-12-29T08:49:30.987Z,8.61
2022-12-29T08:50:32.407Z,8.49
2022-12-29T08:51:33.855Z,8.57
2022-12-29T08:52:35.270Z,8.48
2022-12-29T08:53:36.670Z,8.63
2022-12-29T08:54:38.093Z,8.67
2022-12-29T08:55:39.566Z,8.78
2022-12-29T08:56:41.037Z,8.73
2022-12-29T08:57:46.215Z,8.60
2022-12-29T08:58:47.668Z,8.60
2022-12-29T08:59:49.172Z,8.60
2022-12-29T09:00:52.627Z,8.53
2022-12-29T09:01:56.806Z,8.47
2022-12-29T09:02:58.602Z,8.62
2022-12-29T09:04:17.441Z,8.60
2022-12-29T09:05:19.372Z,8.75
2022-12-29T09:06:21.633Z,8.81
2022-12-29T09:07:23.164Z,8.91
2022-12-29T09:08:25.707Z,8.89
2022-12-29T09:09:27.832Z,8.81
2022-12-29T09:10:29.374Z,8.72
2022-12-29T09:11:30.864Z,8.79
2022-12-29T09:12:36.389Z,8.90
2022-12-29T09:13:41.437Z,8.89
2022-12-29T09:14:43.790Z,8.85
2022-12-29T09:15:45.353Z,8.97
2022-12-29T09:17:05.186Z,8.86
2022-12-29T09:18:07.567Z,8.93
2022-12-29T09:19:08.964Z,8.84
2022-12-29T09:20:11.120Z,8.85
2022-12-29T09:21:13.865Z,8.88
2022-12-29T09:22:15.286Z,8.81
2022-12-29T09:23:16.718Z,8.83
2022-12-29T09:24:18.207Z,8.91
2022-12-29T09:25:25.085Z,8.90
2022-12-29T09:26:26.583Z,8.84
2022-12-29T09:27:28.271Z,8.96
2022-12-29T09:28:30.025Z,8.96
2022-12-29T09:29:31.729Z,8.94
2022-12-29T09:30:33.250Z,8.98
2022-12-29T09:31:35.396Z,9.07
2022-12-29T09:32:43.591Z,8.98
2022-12-29T09:33:46.531Z,9.12
2022-12-29T09:34:47.983Z,9.12
2022-12-29T09:35:55.567Z,9.42
2022-12-29T09:36:57.153Z,9.50
2022-12-29T09:37:58.590Z,9.38
2022-12-29T09:38:59.973Z,9.33
2022-12-29T09:40:01.528Z,9.38
2022-12-29T09:41:30.707Z,9.32
2022-12-29T09:43:04.601Z,9.24
2022-12-29T09:44:27.121Z,9.38
2022-12-29T09:45:44.593Z,9.54
2022-12-29T09:46:50.119Z,9.53
2022-12-29T09:47:52.048Z,9.60
2022-12-29T09:49:17.270Z,9.61
2022-12-29T09:50:31.012Z,9.61
2022-12-29T09:51:33.783Z,9.70
2022-12-29T09:52:44.127Z,9.96
2022-12-29T09:54:14.972Z,9.86
2022-12-29T09:55:37.699Z,9.98
2022-12-29T09:56:39.160Z,10.03
2022-12-29T09:57:50.009Z,10.26
2022-12-29T09:59:04.407Z,10.30
2022-12-29T10:00:14.567Z,10.36
2022-12-29T10:01:29.908Z,10.46
2022-12-29T10:02:47.417Z,10.54
2022-12-29T10:03:58.268Z,10.58
2022-12-29T10:05:00.354Z,10.54
2022-12-29T10:06:12.516Z,10.56
2022-12-29T10:07:38.645Z,10.52
2022-12-29T10:08:54.217Z,10.41
2022-12-29T10:10:04.583Z,10.51
2022-12-29T10:11:25.065Z,10.64
2022-12-29T10:12:31.016Z,10.72
2022-12-29T10:14:10.918Z,10.82
2022-12-29T10:15:39.127Z,10.77
2022-12-29T10:17:00.845Z,10.79
2022-12-29T10:18:38.609Z,10.77
2022-12-29T10:19:52.277Z,10.83
2022-12-29T10:21:15.421Z,10.84
2022-12-29T10:22:41.560Z,10.86
2022-12-29T10:23:51.420Z,10.80
2022-12-29T10:24:57.808Z,10.75
2022-12-29T10:26:01.999Z,10.71
2022-12-29T10:27:05.097Z,10.78
2022-12-29T10:28:23.027Z,10.85
2022-12-29T10:29:38.665Z,10.71
2022-12-29T10:30:41.397Z,10.66
2022-12-29T10:31:51.664Z,10.74
2022-12-29T10:32:58.011Z,10.65
2022-12-29T10:34:13.429Z,10.74
2022-12-29T10:35:19.114Z,10.76
2022-12-29T10:36:48.189Z,10.75
2022-12-29T10:38:27.347Z,10.87
2022-12-29T10:39:41.762Z,10.83
2022-12-29T10:40:53.058Z,10.81
2022-12-29T10:41:59.077Z,10.84
2022-12-29T10:43:02.023Z,10.87
2022-12-29T10:44:03.694Z,10.84
2022-12-29T10:45:06.417Z,10.95
2022-12-29T10:46:16.050Z,10.85
2022-12-29T10:47:23.261Z,10.87
2022-12-29T10:48:35.569Z,11.09
2022-12-29T10:49:42.470Z,11.16
2022-12-29T10:50:44.154Z,11.20
2022-12-29T10:51:49.400Z,11.38
2022-12-29T10:52:51.269Z,11.43
2022-12-29T10:54:00.650Z,11.54
2022-12-29T10:55:08.949Z,11.58
2022-12-29T10:56:22.953Z,11.60
2022-12-29T10:57:27.756Z,11.61
2022-12-29T10:58:30.981Z,11.58
2022-12-29T10:59:36.119Z,11.44
2022-12-29T11:00:37.724Z,11.46
2022-12-29T11:01:49.454Z,11.47
2022-12-29T11:03:03.833Z,11.45
2022-12-29T11:04:31.840Z,11.46
2022-12-29T11:05:44.325Z,11.37
2022-12-29T11:06:45.817Z,11.38
2022-12-29T11:07:54.067Z,11.43
2022-12-29T11:09:10.465Z,11.40
2022-12-29T11:10:22.145Z,11.41
2022-12-29T11:11:33.121Z,11.41
2022-12-29T11:12:35.236Z,11.45
2022-12-29T11:13:49.554Z,11.50
2022-12-29T11:15:09.556Z,11.45
2022-12-29T11:16:12.566Z,11.40
2022-12-29T11:17:19.178Z,11.47
2022-12-29T11:18:26.196Z,11.43
2022-12-29T11:19:37.529Z,11.39
2022-12-29T11:20:43.352Z,11.35
2022-12-29T11:21:45.928Z,11.28
2022-12-29T11:22:47.358Z,11.15
2022-12-29T11:24:00.715Z,11.03
2022-12-29T11:25:13.800Z,10.95
2022-12-29T11:26:21.603Z,10.89
2022-12-29T11:27:25.723Z,10.80
2022-12-29T11:28:31.474Z,10.77
2022-12-29T11:29:41.491Z,10.73
2022-12-29T11:30:43.779Z,10.61
2022-12-29T11:31:47.586Z,10.62
2022-12-29T11:32:56.221Z,10.47
2022-12-29T11:33:57.688Z,10.51
2022-12-29T11:34:59.843Z,10.45
2022-12-29T11:36:23.538Z,10.36
2022-12-29T11:37:39.794Z,10.35
2022-12-29T11:38:52.422Z,10.26
2022-12-29T11:40:05.737Z,10.28
2022-12-29T11:41:13.099Z,10.23
2022-12-29T11:42:23.050Z,10.12
2022-12-29T11:43:35.792Z,10.00
2022-12-29T11:44:43.385Z,9.87
2022-12-29T11:45:47.591Z,9.82
2022-12-29T11:46:52.822Z,9.80
2022-12-29T11:48:19.373Z,9.77
2022-12-29T11:49:26.589Z,9.71
2022-12-29T11:50:31.959Z,9.52
2022-12-29T11:51:45.624Z,9.53
2022-12-29T11:52:49.404Z,9.52
2022-12-29T11:53:54.741Z,9.47
2022-12-29T11:54:57.785Z,9.41
2022-12-29T11:56:06.947Z,9.34
2022-12-29T11:57:17.598Z,9.34
2022-12-29T11:58:19.163Z,9.29
2022-12-29T11:59:35.098Z,9.25
2022-12-29T12:00:41.208Z,9.14
2022-12-29T12:01:44.120Z,9.18
2022-12-29T12:02:56.228Z,9.23
2022-12-29T12:04:03.589Z,9.20
2022-12-29T12:05:20.303Z,9.13
2022-12-29T12:06:25.153Z,9.17
2022-12-29T12:07:42.624Z,9.17
2022-12-29T12:08:57.102Z,9.16
2022-12-29T12:10:07.314Z,9.18
2022-12-29T12:11:19.856Z,9.17
2022-12-29T12:12:30.737Z,9.11
2022-12-29T12:13:41.229Z,9.01
2022-12-29T12:14:53.155Z,9.05
2022-12-29T12:16:18.020Z,9.02
2022-12-29T12:17:24.868Z,8.95
2022-12-29T12:18:35.364Z,8.95
2022-12-29T12:19:45.505Z,8.97
2022-12-29T12:20:52.939Z,8.91
2022-12-29T12:22:04.687Z,8.86
2022-12-29T12:23:35.580Z,8.93
2022-12-29T12:24:59.088Z,8.85
2022-12-29T12:26:31.017Z,8.79
2022-12-29T12:27:41.146Z,8.78
2022-12-29T12:28:57.738Z,8.76
2022-12-29T12:30:06.456Z,8.72
2022-12-29T12:31:19.703Z,8.65
2022-12-29T12:33:06.957Z,8.61
2022-12-29T12:34:16.569Z,8.48
2022-12-29T12:35:29.560Z,8.48
2022-12-29T12:36:36.975Z,8.48
2022-12-29T12:38:00.414Z,8.44
2022-12-29T12:39:20.348Z,8.42
2022-12-29T12:40:27.754Z,8.43
2022-12-29T12:41:55.438Z,8.43
2022-12-29T12:43:02.968Z,8.43
2022-12-29T12:44:24.549Z,8.39
2022-12-29T12:46:11.029Z,8.48
2022-12-29T12:47:41.540Z,8.44
2022-12-29T12:48:51.687Z,8.46
2022-12-29T12:50:38.045Z,8.50
2022-12-29T12:52:02.952Z,8.53
2022-12-29T12:53:28.134Z,8.49
2022-12-29T12:54:38.588Z,8.46
2022-12-29T12:55:46.064Z,8.48
2022-12-29T12:57:13.733Z,8.50
2022-12-29T12:58:30.891Z,8.61
2022-12-29T13:00:09.439Z,8.74
2022-12-29T13:01:22.975Z,8.74
2022-12-29T13:02:56.385Z,8.70
2022-12-29T13:04:16.939Z,8.69
2022-12-29T13:05:37.246Z,8.69
2022-12-29T13:07:03.561Z,8.63
2022-12-29T13:08:07.974Z,8.54
2022-12-29T13:09:15.268Z,8.42
2022-12-29T13:10:37.356Z,8.46
2022-12-29T13:12:00.332Z,8.52
2022-12-29T13:13:32.284Z,8.68
2022-12-29T13:14:39.568Z,8.78
2022-12-29T13:15:57.955Z,8.84
2022-12-29T13:17:12.542Z,8.87
2022-12-29T13:18:28.806Z,8.86
2022-12-29T13:19:49.008Z,8.77
2022-12-29T13:20:58.892Z,8.69
2022-12-29T13:22:06.574Z,8.65
2022-12-29T13:23:33.203Z,8.71
2022-12-29T13:24:51.813Z,8.71
2022-12-29T13:26:46.065Z,8.61
2022-12-29T13:28:07.436Z,8.65
2022-12-29T13:29:17.674Z,8.49
2022-12-29T13:30:22.744Z,8.43
2022-12-29T13:31:33.910Z,8.38
2022-12-29T13:32:56.890Z,8.38
2022-12-29T13:34:20.728Z,8.32
2022-12-29T13:36:03.435Z,8.29
2022-12-29T13:37:13.290Z,8.22
2022-12-29T13:38:20.914Z,8.17
2022-12-29T13:39:34.142Z,8.23
2022-12-29T13:40:51.618Z,8.15
2022-12-29T13:42:04.253Z,8.16
2022-12-29T13:43:06.215Z,8.22
2022-12-29T13:44:08.509Z,8.26
2022-12-29T13:45:20.207Z,8.21
2022-12-29T13:46:34.370Z,8.18
2022-12-29T13:47:43.239Z,8.09
2022-12-29T13:48:52.262Z,8.20
2022-12-29T13:49:57.102Z,8.29
2022-12-29T13:51:01.434Z,8.15
2022-12-29T13:52:18.732Z,8.13
2022-12-29T13:53:29.271Z,8.13
2022-12-29T13:54:45.060Z,8.30
2022-12-29T13:56:07.671Z,8.28
2022-12-29T13:57:43.603Z,8.34
2022-12-29T13:58:48.687Z,8.21
2022-12-29T14:00:13.237Z,8.13
2022-12-29T14:01:23.618Z,8.05
2022-12-29T14:02:47.045Z,8.10
2022-12-29T14:03:52.923Z,8.09
2022-12-29T14:05:03.360Z,8.17
2022-12-29T14:06:29.309Z,8.13
2022-12-29T14:07:38.256Z,8.00
2022-12-29T14:08:40.324Z,7.87
2022-12-29T14:09:43.749Z,7.97
2022-12-29T14:10:51.207Z,7.91
2022-12-29T14:11:52.965Z,8.04
2022-12-29T14:13:04.357Z,8.08
2022-12-29T14:14:26.490Z,8.05
2022-12-29T14:15:28.091Z,8.08
2022-12-29T14:16:35.658Z,8.00
2022-12-29T14:17:38.789Z,8.00
2022-12-29T14:18:45.434Z,7.93
2022-12-29T14:19:52.506Z,7.99
2022-12-29T14:20:59.746Z,8.01
2022-12-29T14:22:05.911Z,8.05
2022-12-29T14:23:10.226Z,7.99
2022-12-29T14:24:28.731Z,8.01
2022-12-29T14:26:07.376Z,7.94
2022-12-29T14:27:11.817Z,8.03
2022-12-29T14:28:27.819Z,8.19
2022-12-29T14:29:32.275Z,8.44
2022-12-29T14:30:52.360Z,8.46
2022-12-29T14:31:53.919Z,8.41
2022-12-29T14:33:04.184Z,8.32
2022-12-29T14:34:11.734Z,8.31
2022-12-29T14:35:40.390Z,8.36
2022-12-29T14:37:01.237Z,8.38
2022-12-29T14:38:26.370Z,8.24
2022-12-29T14:39:46.491Z,8.27
2022-12-29T14:40:49.123Z,8.30
2022-12-29T14:42:00.720Z,8.40
2022-12-29T14:43:02.174Z,8.44
2022-12-29T14:44:18.191Z,8.31
2022-12-29T14:45:19.680Z,8.26
2022-12-29T14:46:21.265Z,8.31
2022-12-29T14:47:35.571Z,8.38
2022-12-29T14:48:44.438Z,8.29
2022-12-29T14:49:46.581Z,8.40
2022-12-29T14:50:48.272Z,8.31
2022-12-29T14:51:53.702Z,8.06
2022-12-29T14:53:05.802Z,7.97
2022-12-29T14:54:47.354Z,7.98
2022-12-29T14:55:56.105Z,7.87
2022-12-29T14:57:03.363Z,7.85
2022-12-29T14:58:13.543Z,7.94
2022-12-29T14:59:16.194Z,7.98
2022-12-29T15:00:17.738Z,8.18
2022-12-29T15:01:34.195Z,7.99